SBOSBO FOR / SBFZ
Speedbird OnlineSpeedbird Online FOR / SBFZ

Pinto Martins International Airport
21:17 27°C

Location Fortaleza, Brazil
Latitude: -3.776279926300049
Longitude: -38.53260040283203
Local Time 21:17 on 21 Jun 2024
UTC -3 hours (America/Fortaleza)
Currency £1 equals BRL 6.90
METAR SBFZ 220000Z 11008KT CAVOK 27/24 Q1013
TAF TAF SBFZ 211957Z 2200/2224 13008KT 8000 SCT022 TN25/2209Z TX30/2217Z BECMG 2212/2213 13017KT TEMPO 2213/2218 13018G28KT BECMG 2220/2222 12010KT TEMPO 2222/2224 4000 SHRA SCT017 FEW025TCU RMK PGA
Weather As Of 21 Jun 2024 21:17
Description Clear sky
Wind 15 km/h from East (110°)
Cloud Cover 0%
Precipitation Rain: none, Snow: none
Sunrise 05:38
Sunset 17:33
Web Wikipedia
Codes IATA: FOR
ICAO: SBFZ
Altitude 25 Meter / 82 Feet
Distance 7,152 KM / 4,444 Miles
from London.
Runways
RunwayLength (m)Surface
132545Asphalt
312545Asphalt
Radio
TypeDescriptionFrequency
APPFORTALEZA APP133
ATISATIS127.7
GNDGND121.95
OPSFORTALEZA OPS122.5
TWRFORTALEZA TWR129
Live ATC



Support Speedbird Online

© 2017-2024 Speedbird Online